Aérodrome :
LOGIN :

S'inscrire | Disclaimer

   EN    FR    IT 

 










Légende :    VFR   VFR Marginal   IFR   IFR Intensif   IFR Très Intensif
Visi : 
Plafond : 
>= 8 km
>= 3000ft
5 à 8 km
1000 à 3000 ft
1500m à 5 km
500 à 1000 ft
800 à 1500m
200 à 500 ft
< 800m
< 200 ft
Symboles :   Orages  Brouillard  Fortes neiges  Fortes précipitations  Vent > 20 kt
SIGMETs :   Divers  Orages  Givrage  Turbulence  Onde Orograph.  Cendres Volcan.







- Altitude de l'aérodrome : 187 ft


ETNW - Wunstorf AB

DERNIER METAR :
  • 201220Z 35006KT 9999 FEW031 SCT120 BKN240 23/15 Q1004 BLU+BLU

METARs EXPIRÉS :
  • 201120Z 36004KT 9999 SCT026 22/15 Q1004 BLU+BLU
  • 201020Z 31010KT 9999 FEW025 SCT240 21/15 Q1004 BLU+BLU

TAF AMD TAF ETNW
Valide du 20 à 12h jusqu'au 21 à 11h UTC


201221Z 2012/2111 32010KT 9999 NSW BKN030 BKN120
PROB30 2012/2103 VRB15G30KT 2000 TSRAGR BKN010CB
BECMG 2101/2103 29010GKT 3500 -RA BKN006
TEMPO 2103/2107 29012G22KT 1500 DZ BKN003
BECMG 2107/2109 29012G22KT 5000 BR BKN020 BY ETGL
Pas de NOTAMs connus pour ce terrain.
1 SIGMET publié pour la FIR Bremen (EDWW) :
 
Orages fréquents avec grêle
EDWW SIGMET 1 VALID 201211/201410 EDZF
EDWW BREMEN FIR FRQ TSGR FCST APRX 20NM WID LINE BTN N5137 E01012 - N5123 E01028 TOP FL350 MOV SSW 20KT NC=



MET'MAP, la Météo Aéronautique d'un coup d'oeil ! - Copyright ORBIFLY Décembre 2007 - Disclaimer

ORBIFLY MET'MAP TEAM :

Programmation & Développement : Alexandra Zaïnal
Conception & Développement : Baudouin d'Aumeries
Co-Programmation & Développement : Marc-Olivier Méhu
Soutien technique & logistique : Manuel Goepfert

Contact : metmap@orbifly.com




SOURCES & CREDITS :

   NOAA